Time;durP1;ratioP1;P1;durP2;ratioP2;P2;SDS_P1;SDS_P2;PMS_P1;PMS_P2;Temp;Humidity;BMP_temperature;BMP_pressure;BME280_temperature;BME280_humidity;BME280_pressure;Samples;Min_cycle;Max_cycle;Signal;HPM_P1;HPM_P2
2024/04/10 00:00:54;;;;;;;;;;;;;;;6.43;100.00;96337.72;10865937;27;3043;-69
2024/04/10 00:06:01;;;;;;;;;;;;;;;6.37;100.00;96333.31;10861520;27;3032;-70
2024/04/10 00:11:08;;;;;;;;;;;;;;;6.35;100.00;96337.22;10860158;27;2947;-71
2024/04/10 00:16:13;;;;;;;;;;;;;;;6.37;100.00;96335.97;10853627;27;3513;-69
2024/04/10 00:21:17;;;;;;;;;;;;;;;6.30;100.00;96335.28;10866829;27;3182;-71
2024/04/10 00:26:21;;;;;;;;;;;;;;;6.31;100.00;96322.75;10862627;27;3145;-71
2024/04/10 00:31:26;;;;;;;;;;;;;;;6.33;100.00;96326.78;10865810;27;3131;-71
2024/04/10 00:36:31;;;;;;;;;;;;;;;6.29;100.00;96335.50;10862470;27;3233;-70
2024/04/10 00:41:35;;;;;;;;;;;;;;;6.18;100.00;96339.81;10864876;27;3120;-70
2024/04/10 00:46:40;;;;;;;;;;;;;;;6.09;100.00;96338.50;10863939;27;3021;-70
2024/04/10 00:51:45;;;;;;;;;;;;;;;6.20;100.00;96343.84;10878085;27;3354;-70
2024/04/10 00:56:50;;;;;;;;;;;;;;;6.23;100.00;96343.41;10868690;27;3011;-71
2024/04/10 01:01:55;;;;;;;;;;;;;;;6.08;100.00;96344.91;10862233;27;3119;-71
2024/04/10 01:07:06;;;;;;;;;;;;;;;6.13;100.00;96348.50;10922938;26;3146;-71
2024/04/10 01:12:11;;;;;;;;;;;;;;;6.16;100.00;96355.22;10936831;26;3026;-70
2024/04/10 01:17:18;;;;;;;;;;;;;;;6.10;100.00;96358.81;10934360;26;3134;-69
2024/04/10 01:22:23;;;;;;;;;;;;;;;6.11;100.00;96349.78;10929531;26;2937;-72
2024/04/10 01:27:28;;;;;;;;;;;;;;;6.08;100.00;96337.69;10928105;26;2957;-70
2024/04/10 01:32:33;;;;;;;;;;;;;;;6.04;100.00;96346.38;10929785;26;3125;-72
2024/04/10 01:37:37;;;;;;;;;;;;;;;6.04;100.00;96341.06;10926738;26;3117;-71
2024/04/10 01:42:43;;;;;;;;;;;;;;;6.10;100.00;96350.81;10929945;26;3055;-72
2024/04/10 01:47:48;;;;;;;;;;;;;;;6.15;100.00;96353.59;10935214;26;3017;-72
2024/04/10 01:52:52;;;;;;;;;;;;;;;6.15;100.00;96364.28;10933402;26;3235;-72
2024/04/10 01:57:58;;;;;;;;;;;;;;;6.21;100.00;96363.34;10932668;26;3294;-70
2024/04/10 02:03:02;;;;;;;;;;;;;;;6.23;100.00;96361.25;10945424;26;3156;-75
2024/04/10 02:08:07;;;;;;;;;;;;;;;6.30;100.00;96351.31;10935830;26;3181;-73
2024/04/10 02:13:19;;;;;;;;;;;;;;;6.25;100.00;96337.84;10928185;26;3041;-76
2024/04/10 02:18:24;;;;;;;;;;;;;;;6.36;100.00;96337.03;10933002;26;3076;-75
2024/04/10 02:23:28;;;;;;;;;;;;;;;6.31;100.00;96344.09;10923160;26;3132;-70
2024/04/10 02:28:32;;;;;;;;;;;;;;;6.26;100.00;96338.63;10900986;26;2937;-71
2024/04/10 02:33:37;;;;;;;;;;;;;;;6.28;100.00;96357.91;10921565;26;3143;-75
2024/04/10 02:38:45;;;;;;;;;;;;;;;6.32;100.00;96359.88;10924237;26;3100;-73
2024/04/10 02:43:50;;;;;;;;;;;;;;;6.30;100.00;96359.31;10935388;26;3160;-74
2024/04/10 02:48:55;;;;;;;;;;;;;;;6.32;100.00;96362.56;10931176;26;3455;-74
2024/04/10 02:54:01;;;;;;;;;;;;;;;6.33;100.00;96366.84;10940314;26;3552;-70
2024/04/10 02:59:08;;;;;;;;;;;;;;;6.32;100.00;96367.91;10940077;26;2901;-72
2024/04/10 03:04:12;;;;;;;;;;;;;;;6.33;100.00;96377.53;10941960;26;3124;-77
2024/04/10 03:09:17;;;;;;;;;;;;;;;6.29;100.00;96371.00;10936764;26;3103;-79
2024/04/10 03:14:21;;;;;;;;;;;;;;;6.37;100.00;96361.88;10947826;26;3259;-77
2024/04/10 03:19:26;;;;;;;;;;;;;;;6.41;100.00;96371.81;10940777;26;3164;-76
2024/04/10 03:24:32;;;;;;;;;;;;;;;6.47;100.00;96380.78;10929473;26;2875;-69
2024/04/10 03:29:36;;;;;;;;;;;;;;;6.37;100.00;96388.56;10936463;26;3216;-71
2024/04/10 03:34:42;;;;;;;;;;;;;;;6.36;100.00;96387.75;10933554;26;3014;-71
2024/04/10 03:39:47;;;;;;;;;;;;;;;6.33;100.00;96404.22;10940392;26;3029;-70
2024/04/10 03:44:52;;;;;;;;;;;;;;;6.39;100.00;96395.28;10938535;26;3231;-69
2024/04/10 03:50:00;;;;;;;;;;;;;;;6.34;100.00;96405.84;10929102;26;3167;-69
2024/04/10 03:55:04;;;;;;;;;;;;;;;6.27;100.00;96410.50;10937016;26;3193;-70
2024/04/10 04:00:08;;;;;;;;;;;;;;;6.28;100.00;96414.78;10917998;26;3244;-70
2024/04/10 04:05:14;;;;;;;;;;;;;;;6.25;100.00;96427.78;10913132;26;3104;-70
2024/04/10 04:10:19;;;;;;;;;;;;;;;6.30;100.00;96426.06;10928407;26;3101;-69
2024/04/10 04:15:24;;;;;;;;;;;;;;;6.37;100.00;96437.44;10915582;26;3184;-70
2024/04/10 04:20:28;;;;;;;;;;;;;;;6.34;100.00;96450.44;10935237;26;3017;-70
2024/04/10 04:25:32;;;;;;;;;;;;;;;6.31;100.00;96457.06;10936852;26;3162;-70
2024/04/10 04:30:37;;;;;;;;;;;;;;;6.26;100.00;96456.94;10942404;26;3122;-72
2024/04/10 04:35:41;;;;;;;;;;;;;;;6.29;100.00;96466.31;10937778;26;3123;-69
2024/04/10 04:40:46;;;;;;;;;;;;;;;6.21;100.00;96470.13;10904072;26;3180;-69
2024/04/10 04:45:50;;;;;;;;;;;;;;;6.19;100.00;96477.56;10925734;26;3160;-70
2024/04/10 04:50:55;;;;;;;;;;;;;;;6.22;100.00;96469.91;10954519;26;3167;-69
2024/04/10 04:55:59;;;;;;;;;;;;;;;6.24;100.00;96477.72;10937335;26;3010;-70
2024/04/10 05:01:06;;;;;;;;;;;;;;;6.28;100.00;96478.84;10941134;26;3154;-71
2024/04/10 05:06:12;;;;;;;;;;;;;;;6.39;100.00;96471.91;10937479;26;2880;-69
2024/04/10 05:11:16;;;;;;;;;;;;;;;6.43;100.00;96486.47;10931954;26;2947;-73
2024/04/10 05:16:21;;;;;;;;;;;;;;;6.53;100.00;96483.19;10935211;26;3687;-69
2024/04/10 05:21:25;;;;;;;;;;;;;;;6.57;100.00;96497.75;10936076;26;3472;-70
2024/04/10 05:26:31;;;;;;;;;;;;;;;6.63;100.00;96521.66;10932621;26;3124;-69
2024/04/10 05:31:36;;;;;;;;;;;;;;;6.94;100.00;96533.91;10935076;26;3029;-72
2024/04/10 05:36:41;;;;;;;;;;;;;;;7.15;100.00;96526.34;10942048;26;3105;-70
2024/04/10 05:41:48;;;;;;;;;;;;;;;7.26;100.00;96534.38;10934707;26;3221;-71
2024/04/10 05:46:53;;;;;;;;;;;;;;;6.96;100.00;96536.34;10935678;26;2500;-73
2024/04/10 05:51:58;;;;;;;;;;;;;;;6.80;100.00;96553.03;10929353;26;3153;-70
2024/04/10 05:57:02;;;;;;;;;;;;;;;6.78;100.00;96555.94;10945669;26;3073;-70
2024/04/10 06:02:06;;;;;;;;;;;;;;;6.86;100.00;96563.63;10937004;26;3052;-72
2024/04/10 06:07:11;;;;;;;;;;;;;;;6.79;100.00;96562.91;10930610;26;3644;-70
2024/04/10 06:12:15;;;;;;;;;;;;;;;6.95;100.00;96572.94;10937885;26;2977;-73
2024/04/10 06:17:21;;;;;;;;;;;;;;;7.01;100.00;96577.38;10946967;26;2980;-73
2024/04/10 06:22:26;;;;;;;;;;;;;;;7.04;100.00;96582.25;10911823;26;3152;-74
2024/04/10 06:27:31;;;;;;;;;;;;;;;7.12;100.00;96586.44;10948437;26;3140;-74
2024/04/10 06:32:38;;;;;;;;;;;;;;;7.32;100.00;96594.13;10945381;26;3148;-69
2024/04/10 06:37:42;;;;;;;;;;;;;;;7.34;100.00;96601.91;10925603;26;3247;-69
2024/04/10 06:42:46;;;;;;;;;;;;;;;7.21;100.00;96610.97;10931669;26;3034;-69
2024/04/10 06:47:51;;;;;;;;;;;;;;;7.43;100.00;96622.72;10930687;26;3083;-70
2024/04/10 06:52:55;;;;;;;;;;;;;;;7.36;100.00;96619.34;10946202;26;3356;-70
2024/04/10 06:57:59;;;;;;;;;;;;;;;7.44;100.00;96634.22;10939429;26;3211;-70
2024/04/10 07:03:04;;;;;;;;;;;;;;;7.61;100.00;96640.53;10933760;26;3107;-69
2024/04/10 07:08:08;;;;;;;;;;;;;;;7.65;100.00;96648.91;10913267;26;3116;-69
2024/04/10 07:13:12;;;;;;;;;;;;;;;7.62;100.00;96655.53;10935554;26;2946;-69
2024/04/10 07:18:17;;;;;;;;;;;;;;;7.51;100.00;96651.00;10941403;26;3158;-70
2024/04/10 07:23:21;;;;;;;;;;;;;;;7.45;100.00;96647.41;10935981;26;3126;-70
2024/04/10 07:28:26;;;;;;;;;;;;;;;7.61;100.00;96650.41;10916357;26;3112;-72
2024/04/10 07:33:30;;;;;;;;;;;;;;;7.68;100.00;96659.94;10934237;26;3355;-71
2024/04/10 07:38:35;;;;;;;;;;;;;;;7.76;100.00;96664.97;10908012;26;3245;-69
2024/04/10 07:43:39;;;;;;;;;;;;;;;7.80;100.00;96668.78;10926308;26;2925;-70
2024/04/10 07:48:44;;;;;;;;;;;;;;;7.84;100.00;96679.84;10937309;26;2967;-68
2024/04/10 07:53:50;;;;;;;;;;;;;;;8.07;100.00;96685.16;10932465;26;3050;-70
2024/04/10 07:58:55;;;;;;;;;;;;;;;8.29;100.00;96679.19;10936503;26;3239;-71
2024/04/10 08:04:02;;;;;;;;;;;;;;;8.62;100.00;96681.22;10928752;26;3155;-69
2024/04/10 08:09:07;;;;;;;;;;;;;;;8.63;100.00;96691.69;10942126;26;3051;-67
2024/04/10 08:14:11;;;;;;;;;;;;;;;8.59;100.00;96695.09;10932772;26;3052;-69
2024/04/10 08:19:16;;;;;;;;;;;;;;;8.46;100.00;96714.94;10936988;26;3383;-70
2024/04/10 08:24:20;;;;;;;;;;;;;;;8.53;100.00;96720.19;10930333;26;2965;-68
2024/04/10 08:29:24;;;;;;;;;;;;;;;8.89;100.00;96724.34;10951870;26;3105;-69
2024/04/10 08:34:29;;;;;;;;;;;;;;;9.24;100.00;96728.75;10944745;26;3029;-69
2024/04/10 08:39:33;;;;;;;;;;;;;;;9.56;100.00;96726.34;10935223;26;3156;-72
2024/04/10 08:44:38;;;;;;;;;;;;;;;9.70;100.00;96722.28;10929794;26;3123;-70
2024/04/10 08:49:42;;;;;;;;;;;;;;;10.20;100.00;96743.72;10926677;26;3067;-68
2024/04/10 08:54:47;;;;;;;;;;;;;;;10.60;100.00;96736.47;10904817;26;3134;-70
2024/04/10 08:59:52;;;;;;;;;;;;;;;11.24;100.00;96739.31;10929518;26;3376;-67
2024/04/10 09:04:58;;;;;;;;;;;;;;;11.29;100.00;96750.97;10933436;26;2906;-68
2024/04/10 09:10:02;;;;;;;;;;;;;;;11.55;100.00;96743.94;10910593;26;3051;-69
2024/04/10 09:15:09;;;;;;;;;;;;;;;11.33;100.00;96752.09;10938860;26;3028;-68
2024/04/10 09:20:16;;;;;;;;;;;;;;;10.71;100.00;96751.66;10930204;26;2759;-69
2024/04/10 09:25:21;;;;;;;;;;;;;;;11.11;100.00;96748.63;10944846;26;2940;-70
2024/04/10 09:30:25;;;;;;;;;;;;;;;11.71;100.00;96742.19;10934056;26;3018;-67
2024/04/10 09:35:29;;;;;;;;;;;;;;;11.12;100.00;96744.03;10938688;26;2819;-69
2024/04/10 09:40:35;;;;;;;;;;;;;;;11.22;100.00;96755.75;10920047;26;2782;-69
2024/04/10 09:45:40;;;;;;;;;;;;;;;11.73;100.00;96756.22;10930183;26;3515;-70
2024/04/10 09:50:44;;;;;;;;;;;;;;;10.95;100.00;96744.16;10906315;26;2851;-68
2024/04/10 09:55:48;;;;;;;;;;;;;;;11.85;100.00;96754.19;10931074;26;3019;-70
2024/04/10 10:00:52;;;;;;;;;;;;;;;12.51;100.00;96750.31;10947004;26;3077;-71
2024/04/10 10:05:57;;;;;;;;;;;;;;;13.21;100.00;96748.97;10916021;26;2930;-68
2024/04/10 10:11:02;;;;;;;;;;;;;;;12.62;100.00;96757.38;10930069;26;3069;-71
2024/04/10 10:16:06;;;;;;;;;;;;;;;12.73;100.00;96764.47;10941363;26;2949;-68
2024/04/10 10:21:11;;;;;;;;;;;;;;;12.55;100.00;96770.28;10941682;26;2959;-71
2024/04/10 10:26:15;;;;;;;;;;;;;;;12.37;100.00;96772.34;10940715;26;2785;-69
2024/04/10 10:31:21;;;;;;;;;;;;;;;12.81;100.00;96772.03;10950122;26;3385;-71
2024/04/10 10:36:26;;;;;;;;;;;;;;;12.08;100.00;96773.75;10946599;26;2750;-68
2024/04/10 10:41:30;;;;;;;;;;;;;;;12.11;100.00;96762.47;10903366;26;2742;-68
2024/04/10 10:46:35;;;;;;;;;;;;;;;12.48;100.00;96761.63;10958739;26;2535;-71
2024/04/10 10:51:39;;;;;;;;;;;;;;;12.96;100.00;96753.19;10961730;26;3147;-70
2024/04/10 10:56:43;;;;;;;;;;;;;;;12.95;100.00;96762.38;10935059;26;2852;-69
2024/04/10 11:01:48;;;;;;;;;;;;;;;13.71;100.00;96758.25;10947609;26;3013;-69
2024/04/10 11:06:53;;;;;;;;;;;;;;;13.25;100.00;96755.50;10958169;26;2956;-69
2024/04/10 11:11:57;;;;;;;;;;;;;;;12.82;99.91;96754.75;10909250;26;3600;-71
2024/04/10 11:17:03;;;;;;;;;;;;;;;13.01;100.00;96738.91;10942673;26;2829;-70
2024/04/10 11:22:10;;;;;;;;;;;;;;;13.50;100.00;96735.81;10944359;26;2774;-71
2024/04/10 11:27:16;;;;;;;;;;;;;;;13.09;100.00;96742.97;10945347;26;2909;-70
2024/04/10 11:32:21;;;;;;;;;;;;;;;12.90;100.00;96737.25;10942543;26;2964;-70
2024/04/10 11:37:26;;;;;;;;;;;;;;;11.36;100.00;96740.81;10938446;26;2765;-71
2024/04/10 11:42:30;;;;;;;;;;;;;;;12.14;100.00;96743.06;10935210;26;2791;-72
2024/04/10 11:47:35;;;;;;;;;;;;;;;11.99;100.00;96742.97;10937906;26;2830;-70
2024/04/10 11:52:39;;;;;;;;;;;;;;;12.38;100.00;96748.88;10955784;26;3283;-71
2024/04/10 11:57:45;;;;;;;;;;;;;;;12.63;97.40;96748.22;10923151;26;2917;-70
2024/04/10 12:02:55;;;;;;;;;;;;;;;12.98;90.56;96745.66;10931542;26;2889;-71
2024/04/10 12:07:59;;;;;;;;;;;;;;;13.55;90.74;96745.78;10931912;26;2645;-70
2024/04/10 12:13:04;;;;;;;;;;;;;;;13.64;93.45;96749.59;10943742;26;2927;-71
2024/04/10 12:18:08;;;;;;;;;;;;;;;13.46;86.15;96745.53;10941874;26;2881;-71
2024/04/10 12:23:12;;;;;;;;;;;;;;;14.25;80.81;96746.84;10949161;26;3056;-71
2024/04/10 12:28:22;;;;;;;;;;;;;;;14.23;73.26;96746.34;10943422;26;2952;-71
2024/04/10 12:33:26;;;;;;;;;;;;;;;12.89;93.67;96741.84;10944727;26;2795;-71
2024/04/10 12:38:31;;;;;;;;;;;;;;;12.84;94.34;96744.50;10926834;26;2309;-70
2024/04/10 12:43:36;;;;;;;;;;;;;;;12.68;95.76;96745.53;10934804;26;3251;-71
2024/04/10 12:48:40;;;;;;;;;;;;;;;12.64;96.68;96739.03;10943615;26;2960;-69
2024/04/10 12:53:45;;;;;;;;;;;;;;;13.08;97.34;96738.66;10929900;26;3083;-70
2024/04/10 12:58:49;;;;;;;;;;;;;;;13.49;92.07;96735.00;10935635;26;3170;-72
2024/04/10 13:03:54;;;;;;;;;;;;;;;12.42;100.00;96739.22;10931235;26;3121;-73
2024/04/10 13:08:58;;;;;;;;;;;;;;;13.46;98.18;96724.72;10933858;26;3120;-76
2024/04/10 13:14:03;;;;;;;;;;;;;;;13.59;89.79;96725.28;10945165;26;3133;-72
2024/04/10 13:19:07;;;;;;;;;;;;;;;13.45;88.19;96725.81;10943228;26;3149;-71
2024/04/10 13:24:11;;;;;;;;;;;;;;;13.91;84.17;96733.94;10943781;26;3421;-71
2024/04/10 13:29:16;;;;;;;;;;;;;;;13.27;82.72;96737.13;10940810;26;3052;-73
2024/04/10 13:34:21;;;;;;;;;;;;;;;12.91;84.79;96734.28;10937252;26;3124;-77
2024/04/10 13:39:26;;;;;;;;;;;;;;;14.02;75.21;96738.25;10930927;26;3182;-72
2024/04/10 13:44:31;;;;;;;;;;;;;;;14.51;75.24;96740.38;10936270;26;2978;-71
2024/04/10 13:49:38;;;;;;;;;;;;;;;14.07;78.32;96732.84;10942752;26;3141;-69
2024/04/10 13:54:43;;;;;;;;;;;;;;;13.57;82.06;96735.56;10932726;26;3237;-71
2024/04/10 13:59:47;;;;;;;;;;;;;;;13.75;83.09;96737.72;10941917;26;3182;-73
2024/04/10 14:04:52;;;;;;;;;;;;;;;13.52;87.17;96742.56;10921243;26;3041;-70
2024/04/10 14:09:56;;;;;;;;;;;;;;;13.61;87.62;96752.81;10937516;26;3133;-70
2024/04/10 14:15:00;;;;;;;;;;;;;;;14.05;91.00;96753.91;10925284;26;3142;-68
2024/04/10 14:20:05;;;;;;;;;;;;;;;14.24;85.58;96739.84;10881342;26;3109;-74
2024/04/10 14:25:12;;;;;;;;;;;;;;;14.34;83.09;96747.94;10924524;26;3247;-71
2024/04/10 14:30:16;;;;;;;;;;;;;;;13.85;80.52;96751.22;10919393;26;3299;-72
2024/04/10 14:35:21;;;;;;;;;;;;;;;12.99;88.36;96755.38;10924062;26;2965;-72
2024/04/10 14:40:25;;;;;;;;;;;;;;;12.87;89.27;96743.19;10898221;26;3154;-71
2024/04/10 14:45:30;;;;;;;;;;;;;;;12.96;90.56;96753.19;10927441;26;3047;-74
2024/04/10 14:50:34;;;;;;;;;;;;;;;12.63;90.00;96761.69;10934378;26;3265;-73
2024/04/10 14:55:40;;;;;;;;;;;;;;;12.53;93.36;96762.44;10931066;26;3131;-73
2024/04/10 15:00:44;;;;;;;;;;;;;;;12.09;100.00;96764.63;10932444;26;3214;-73
2024/04/10 15:05:49;;;;;;;;;;;;;;;12.16;100.00;96765.22;10933797;26;2889;-75
2024/04/10 15:10:53;;;;;;;;;;;;;;;12.04;100.00;96768.09;10928450;26;3146;-73
2024/04/10 15:15:57;;;;;;;;;;;;;;;12.27;100.00;96771.44;10936339;26;2977;-72
2024/04/10 15:21:03;;;;;;;;;;;;;;;12.22;100.00;96779.53;10934555;26;3071;-72
2024/04/10 15:26:07;;;;;;;;;;;;;;;12.20;100.00;96781.66;10942131;26;3009;-72
2024/04/10 15:31:11;;;;;;;;;;;;;;;11.75;100.00;96786.38;10928904;26;3105;-72
2024/04/10 15:36:16;;;;;;;;;;;;;;;11.62;100.00;96789.50;10930664;26;2934;-71
2024/04/10 15:41:21;;;;;;;;;;;;;;;11.58;100.00;96793.78;10937074;26;3133;-70
2024/04/10 15:46:25;;;;;;;;;;;;;;;11.62;100.00;96789.50;10942863;26;2974;-72
2024/04/10 15:51:30;;;;;;;;;;;;;;;11.45;100.00;96792.31;10936861;26;2969;-72
2024/04/10 15:56:35;;;;;;;;;;;;;;;11.61;100.00;96788.69;10923626;26;3096;-73
2024/04/10 16:01:39;;;;;;;;;;;;;;;11.54;100.00;96796.16;10944088;26;2883;-72
2024/04/10 16:06:44;;;;;;;;;;;;;;;11.23;100.00;96800.41;10897866;26;3247;-72
2024/04/10 16:11:48;;;;;;;;;;;;;;;11.22;100.00;96806.88;10928850;26;3065;-74
2024/04/10 16:16:54;;;;;;;;;;;;;;;11.34;100.00;96796.78;10932272;26;3125;-71
2024/04/10 16:21:59;;;;;;;;;;;;;;;11.26;100.00;96797.25;10908050;26;2986;-71
2024/04/10 16:27:03;;;;;;;;;;;;;;;11.38;100.00;96802.47;10923280;26;3201;-69
2024/04/10 16:32:08;;;;;;;;;;;;;;;11.42;100.00;96808.16;10904385;26;3116;-69
2024/04/10 16:37:13;;;;;;;;;;;;;;;11.12;100.00;96825.59;10936277;26;2926;-71
2024/04/10 16:42:17;;;;;;;;;;;;;;;10.90;100.00;96824.78;10929741;26;3145;-69
2024/04/10 16:47:21;;;;;;;;;;;;;;;11.14;100.00;96831.56;10930108;26;3080;-69
2024/04/10 16:52:26;;;;;;;;;;;;;;;11.20;100.00;96827.84;10935518;26;3231;-69
2024/04/10 16:57:30;;;;;;;;;;;;;;;10.97;100.00;96823.53;10935181;26;2860;-70
2024/04/10 17:02:34;;;;;;;;;;;;;;;11.16;100.00;96826.72;10928067;26;3244;-70
2024/04/10 17:07:39;;;;;;;;;;;;;;;10.99;100.00;96824.09;10900272;26;3359;-70
2024/04/10 17:12:44;;;;;;;;;;;;;;;10.80;100.00;96844.28;10930472;26;3591;-69
2024/04/10 17:23:09;;;;;;;;;;;;;;;10.47;100.00;96856.72;10929947;26;3136;-69
2024/04/10 17:28:13;;;;;;;;;;;;;;;10.32;100.00;96867.25;10929596;26;3140;-70
2024/04/10 17:33:17;;;;;;;;;;;;;;;10.23;100.00;96877.59;10930366;26;3165;-70
2024/04/10 17:38:22;;;;;;;;;;;;;;;10.09;100.00;96876.25;10924582;26;3170;-70
2024/04/10 17:43:26;;;;;;;;;;;;;;;9.91;100.00;96879.97;10922117;26;3331;-70
2024/04/10 17:48:38;;;;;;;;;;;;;;;9.76;100.00;96877.03;10929201;26;3893;-68
2024/04/10 17:54:12;;;;;;;;;;;;;;;9.58;100.00;96885.28;10956625;26;2845;-69
2024/04/10 17:59:16;;;;;;;;;;;;;;;9.50;100.00;96894.53;10960334;26;3120;-69
2024/04/10 18:04:21;;;;;;;;;;;;;;;9.35;100.00;96895.06;10955561;26;3201;-69
2024/04/10 18:09:25;;;;;;;;;;;;;;;9.27;100.00;96906.16;10925897;26;3032;-69
2024/04/10 18:14:37;;;;;;;;;;;;;;;9.21;100.00;96905.22;10952337;26;3111;-69
2024/04/10 18:19:41;;;;;;;;;;;;;;;9.10;100.00;96908.78;10946481;26;3119;-69
2024/04/10 18:24:46;;;;;;;;;;;;;;;9.11;100.00;96913.06;10953658;26;2956;-70
2024/04/10 18:29:50;;;;;;;;;;;;;;;9.03;100.00;96916.09;10955903;26;3229;-70
2024/04/10 18:34:55;;;;;;;;;;;;;;;8.94;100.00;96925.56;10945950;26;3390;-74
2024/04/10 18:39:59;;;;;;;;;;;;;;;8.93;100.00;96926.63;10953532;26;2920;-73
2024/04/10 18:45:03;;;;;;;;;;;;;;;8.79;100.00;96935.97;10962219;26;3197;-69
2024/04/10 18:50:08;;;;;;;;;;;;;;;8.66;100.00;96947.75;10965873;26;3115;-70
2024/04/10 18:55:12;;;;;;;;;;;;;;;8.49;100.00;96947.59;10960889;26;3163;-69
2024/04/10 19:00:17;;;;;;;;;;;;;;;8.49;100.00;96957.50;10960531;26;2870;-70
2024/04/10 19:05:22;;;;;;;;;;;;;;;8.49;100.00;96960.19;10955949;26;3143;-70
2024/04/10 19:10:26;;;;;;;;;;;;;;;8.44;100.00;96965.41;10962946;26;3204;-70
2024/04/10 19:15:30;;;;;;;;;;;;;;;8.33;100.00;96956.25;10953539;26;3182;-68
2024/04/10 19:20:35;;;;;;;;;;;;;;;8.33;100.00;96965.16;10960511;26;3018;-68
2024/04/10 19:25:40;;;;;;;;;;;;;;;8.21;100.00;96963.50;10960146;26;3150;-69
2024/04/10 19:30:44;;;;;;;;;;;;;;;8.25;100.00;96965.47;10964638;26;3132;-69
2024/04/10 19:35:48;;;;;;;;;;;;;;;8.25;100.00;96959.28;10972704;26;2963;-69
2024/04/10 19:40:53;;;;;;;;;;;;;;;8.13;100.00;96960.06;10934965;26;2967;-69
2024/04/10 19:45:57;;;;;;;;;;;;;;;8.03;100.00;96959.81;10967773;26;3192;-71
2024/04/10 19:51:02;;;;;;;;;;;;;;;7.93;100.00;96977.47;10953311;26;3024;-68
2024/04/10 19:56:07;;;;;;;;;;;;;;;7.90;100.00;96967.22;10960298;26;3390;-68
2024/04/10 20:01:16;;;;;;;;;;;;;;;7.82;100.00;96971.00;10954686;26;3004;-70
2024/04/10 20:06:20;;;;;;;;;;;;;;;7.78;100.00;96967.19;10960386;26;3027;-69
2024/04/10 20:11:25;;;;;;;;;;;;;;;7.74;100.00;96969.47;10960972;26;3155;-67
2024/04/10 20:16:31;;;;;;;;;;;;;;;7.91;100.00;96977.72;10960566;26;2992;-68
2024/04/10 20:21:35;;;;;;;;;;;;;;;7.82;100.00;96974.53;10960594;26;2988;-67
2024/04/10 20:26:40;;;;;;;;;;;;;;;7.81;100.00;96977.41;10963341;26;2685;-67
2024/04/10 20:31:45;;;;;;;;;;;;;;;7.69;100.00;96988.06;10943174;26;3148;-68
2024/04/10 20:36:51;;;;;;;;;;;;;;;7.68;100.00;96974.91;10962623;26;3145;-71
2024/04/10 20:41:56;;;;;;;;;;;;;;;7.65;100.00;96983.41;10965875;26;3026;-68
2024/04/10 20:47:00;;;;;;;;;;;;;;;7.51;100.00;96982.75;10962554;26;3262;-68
2024/04/10 20:52:05;;;;;;;;;;;;;;;7.51;100.00;96991.59;10963888;26;2985;-67
2024/04/10 20:57:09;;;;;;;;;;;;;;;7.52;100.00;96995.91;10971139;26;3217;-67
2024/04/10 21:02:16;;;;;;;;;;;;;;;7.42;100.00;96995.59;10957276;26;3051;-68
2024/04/10 22:13:10;;;;;;;;;;;;;;;6.85;100.00;97077.81;11358321;25;3171;-68
2024/04/10 22:28:57;;;;;;;;;;;;;;;6.67;100.00;97085.78;11347895;25;3230;-67
2024/04/10 22:34:04;;;;;;;;;;;;;;;6.70;100.00;97086.16;11356897;25;2849;-69
2024/04/10 22:39:09;;;;;;;;;;;;;;;6.73;100.00;97091.06;11366010;25;3114;-68
2024/04/10 22:44:15;;;;;;;;;;;;;;;6.74;100.00;97089.22;11359603;25;3125;-67
2024/04/10 22:49:19;;;;;;;;;;;;;;;6.78;100.00;97095.78;11339833;25;2854;-67
2024/04/10 22:54:23;;;;;;;;;;;;;;;6.69;100.00;97089.06;11315342;25;3092;-67
2024/04/10 22:59:28;;;;;;;;;;;;;;;6.64;100.00;97088.88;11317675;26;3644;-68
2024/04/10 23:04:32;;;;;;;;;;;;;;;6.62;100.00;97091.78;11331517;26;3218;-66
2024/04/10 23:09:36;;;;;;;;;;;;;;;6.56;100.00;97094.50;11335281;26;3058;-67
2024/04/10 23:14:41;;;;;;;;;;;;;;;6.59;100.00;97094.06;11319065;26;3081;-67
2024/04/10 23:19:45;;;;;;;;;;;;;;;6.57;100.00;97093.47;11332317;26;3132;-67
2024/04/10 23:24:49;;;;;;;;;;;;;;;6.55;100.00;97087.50;11307880;26;3168;-66
2024/04/10 23:29:54;;;;;;;;;;;;;;;6.60;100.00;97088.50;11332774;25;3215;-69
2024/04/10 23:34:58;;;;;;;;;;;;;;;6.56;100.00;97089.16;11327946;25;3080;-68
2024/04/10 23:40:03;;;;;;;;;;;;;;;6.58;100.00;97087.09;11322165;26;2928;-68
2024/04/10 23:45:07;;;;;;;;;;;;;;;6.64;100.00;97083.53;11337534;26;2877;-68
2024/04/10 23:50:11;;;;;;;;;;;;;;;6.66;100.00;97086.81;11314520;26;3126;-69
2024/04/10 23:55:15;;;;;;;;;;;;;;;6.59;100.00;97084.19;11326908;25;2986;-65
